sensor_id;sensor_type;location;lat;lon;timestamp;P1;durP1;ratioP1;P2;durP2;ratioP2
26486;SDS011;14425;56.136;40.360;2023-07-13T00:01:30;5.28;;;2.60;;
26486;SDS011;14425;56.136;40.360;2023-07-13T00:03:56;3.65;;;2.72;;
26486;SDS011;14425;56.136;40.360;2023-07-13T00:06:23;3.17;;;2.35;;
26486;SDS011;14425;56.136;40.360;2023-07-13T00:08:52;2.35;;;1.98;;
26486;SDS011;14425;56.136;40.360;2023-07-13T00:11:18;5.63;;;1.83;;
26486;SDS011;14425;56.136;40.360;2023-07-13T00:13:43;3.28;;;2.30;;
26486;SDS011;14425;56.136;40.360;2023-07-13T00:16:10;3.00;;;2.13;;
26486;SDS011;14425;56.136;40.360;2023-07-13T00:18:39;6.00;;;2.00;;
26486;SDS011;14425;56.136;40.360;2023-07-13T00:21:05;3.28;;;1.92;;
26486;SDS011;14425;56.136;40.360;2023-07-13T00:23:34;3.35;;;1.70;;
26486;SDS011;14425;56.136;40.360;2023-07-13T00:26:05;4.13;;;2.45;;
26486;SDS011;14425;56.136;40.360;2023-07-13T00:28:33;6.07;;;2.17;;
26486;SDS011;14425;56.136;40.360;2023-07-13T00:31:00;4.75;;;2.25;;
26486;SDS011;14425;56.136;40.360;2023-07-13T00:33:27;4.03;;;2.47;;
26486;SDS011;14425;56.136;40.360;2023-07-13T00:35:54;2.00;;;1.80;;
26486;SDS011;14425;56.136;40.360;2023-07-13T00:38:23;3.45;;;2.33;;
26486;SDS011;14425;56.136;40.360;2023-07-13T00:40:49;4.45;;;2.42;;
26486;SDS011;14425;56.136;40.360;2023-07-13T00:43:22;2.63;;;1.75;;
26486;SDS011;14425;56.136;40.360;2023-07-13T00:48:20;3.17;;;2.30;;
26486;SDS011;14425;56.136;40.360;2023-07-13T00:50:57;2.75;;;2.15;;
26486;SDS011;14425;56.136;40.360;2023-07-13T00:53:27;4.43;;;2.20;;
26486;SDS011;14425;56.136;40.360;2023-07-13T00:55:57;2.67;;;2.03;;
26486;SDS011;14425;56.136;40.360;2023-07-13T00:58:24;3.25;;;2.05;;
26486;SDS011;14425;56.136;40.360;2023-07-13T01:00:51;3.13;;;2.08;;
26486;SDS011;14425;56.136;40.360;2023-07-13T01:03:17;3.47;;;2.42;;
26486;SDS011;14425;56.136;40.360;2023-07-13T01:05:44;4.43;;;2.40;;
26486;SDS011;14425;56.136;40.360;2023-07-13T01:08:13;5.25;;;2.00;;
26486;SDS011;14425;56.136;40.360;2023-07-13T01:10:39;3.80;;;2.50;;
26486;SDS011;14425;56.136;40.360;2023-07-13T01:13:09;3.17;;;2.10;;
26486;SDS011;14425;56.136;40.360;2023-07-13T01:15:46;2.25;;;2.05;;
26486;SDS011;14425;56.136;40.360;2023-07-13T01:18:18;2.40;;;1.80;;
26486;SDS011;14425;56.136;40.360;2023-07-13T01:23:21;3.13;;;1.33;;
26486;SDS011;14425;56.136;40.360;2023-07-13T01:25:47;2.53;;;2.08;;
26486;SDS011;14425;56.136;40.360;2023-07-13T01:28:13;4.13;;;2.20;;
26486;SDS011;14425;56.136;40.360;2023-07-13T01:30:40;3.63;;;2.40;;
26486;SDS011;14425;56.136;40.360;2023-07-13T01:33:07;2.55;;;1.85;;
26486;SDS011;14425;56.136;40.360;2023-07-13T01:35:35;4.57;;;1.98;;
26486;SDS011;14425;56.136;40.360;2023-07-13T01:38:00;4.88;;;2.53;;
26486;SDS011;14425;56.136;40.360;2023-07-13T01:40:28;3.25;;;2.53;;
26486;SDS011;14425;56.136;40.360;2023-07-13T01:42:55;2.63;;;2.17;;
26486;SDS011;14425;56.136;40.360;2023-07-13T01:45:23;2.80;;;2.25;;
26486;SDS011;14425;56.136;40.360;2023-07-13T01:47:49;4.65;;;2.10;;
26486;SDS011;14425;56.136;40.360;2023-07-13T01:50:15;2.95;;;2.20;;
26486;SDS011;14425;56.136;40.360;2023-07-13T01:52:40;3.20;;;2.30;;
26486;SDS011;14425;56.136;40.360;2023-07-13T01:55:06;3.67;;;2.58;;
26486;SDS011;14425;56.136;40.360;2023-07-13T01:57:32;4.03;;;2.47;;
26486;SDS011;14425;56.136;40.360;2023-07-13T01:59:58;3.45;;;2.63;;
26486;SDS011;14425;56.136;40.360;2023-07-13T02:02:26;4.50;;;1.75;;
26486;SDS011;14425;56.136;40.360;2023-07-13T02:04:52;4.72;;;2.50;;
26486;SDS011;14425;56.136;40.360;2023-07-13T02:07:18;2.85;;;2.53;;
26486;SDS011;14425;56.136;40.360;2023-07-13T02:09:46;3.92;;;2.30;;
26486;SDS011;14425;56.136;40.360;2023-07-13T02:12:15;5.20;;;2.90;;
26486;SDS011;14425;56.136;40.360;2023-07-13T02:14:40;2.40;;;1.83;;
26486;SDS011;14425;56.136;40.360;2023-07-13T02:17:06;4.90;;;2.35;;
26486;SDS011;14425;56.136;40.360;2023-07-13T02:19:32;3.88;;;2.38;;
26486;SDS011;14425;56.136;40.360;2023-07-13T02:21:57;2.75;;;1.95;;
26486;SDS011;14425;56.136;40.360;2023-07-13T02:24:23;4.38;;;2.90;;
26486;SDS011;14425;56.136;40.360;2023-07-13T02:26:55;3.58;;;2.28;;
26486;SDS011;14425;56.136;40.360;2023-07-13T02:29:21;2.80;;;1.80;;
26486;SDS011;14425;56.136;40.360;2023-07-13T02:31:46;2.50;;;2.13;;
26486;SDS011;14425;56.136;40.360;2023-07-13T02:34:12;3.25;;;2.30;;
26486;SDS011;14425;56.136;40.360;2023-07-13T02:36:41;2.63;;;2.42;;
26486;SDS011;14425;56.136;40.360;2023-07-13T02:39:08;3.40;;;2.90;;
26486;SDS011;14425;56.136;40.360;2023-07-13T02:41:39;3.28;;;2.63;;
26486;SDS011;14425;56.136;40.360;2023-07-13T02:44:04;7.85;;;2.72;;
26486;SDS011;14425;56.136;40.360;2023-07-13T02:46:34;3.40;;;2.83;;
26486;SDS011;14425;56.136;40.360;2023-07-13T02:49:04;6.32;;;3.00;;
26486;SDS011;14425;56.136;40.360;2023-07-13T02:51:30;6.57;;;2.80;;
26486;SDS011;14425;56.136;40.360;2023-07-13T02:53:58;5.55;;;2.20;;
26486;SDS011;14425;56.136;40.360;2023-07-13T02:56:28;3.70;;;2.53;;
26486;SDS011;14425;56.136;40.360;2023-07-13T02:58:57;3.90;;;2.65;;
26486;SDS011;14425;56.136;40.360;2023-07-13T03:01:23;4.63;;;2.80;;
26486;SDS011;14425;56.136;40.360;2023-07-13T03:03:50;4.60;;;2.70;;
26486;SDS011;14425;56.136;40.360;2023-07-13T03:06:16;3.38;;;2.40;;
26486;SDS011;14425;56.136;40.360;2023-07-13T03:08:42;10.10;;;2.75;;
26486;SDS011;14425;56.136;40.360;2023-07-13T03:11:10;6.72;;;3.30;;
26486;SDS011;14425;56.136;40.360;2023-07-13T03:13:40;5.25;;;2.83;;
26486;SDS011;14425;56.136;40.360;2023-07-13T03:16:08;4.85;;;2.88;;
26486;SDS011;14425;56.136;40.360;2023-07-13T03:18:35;3.65;;;2.47;;
26486;SDS011;14425;56.136;40.360;2023-07-13T03:21:04;7.40;;;3.35;;
26486;SDS011;14425;56.136;40.360;2023-07-13T03:23:33;3.15;;;2.10;;
26486;SDS011;14425;56.136;40.360;2023-07-13T03:26:06;4.97;;;2.85;;
26486;SDS011;14425;56.136;40.360;2023-07-13T03:28:35;4.35;;;2.30;;
26486;SDS011;14425;56.136;40.360;2023-07-13T03:31:06;2.25;;;2.05;;
26486;SDS011;14425;56.136;40.360;2023-07-13T03:33:37;3.30;;;1.98;;
26486;SDS011;14425;56.136;40.360;2023-07-13T03:36:03;3.17;;;1.45;;
26486;SDS011;14425;56.136;40.360;2023-07-13T03:40:59;2.70;;;2.15;;
26486;SDS011;14425;56.136;40.360;2023-07-13T03:43:25;4.13;;;3.35;;
26486;SDS011;14425;56.136;40.360;2023-07-13T03:45:51;2.83;;;1.92;;
26486;SDS011;14425;56.136;40.360;2023-07-13T03:48:16;2.67;;;2.35;;
26486;SDS011;14425;56.136;40.360;2023-07-13T03:50:45;4.82;;;2.95;;
26486;SDS011;14425;56.136;40.360;2023-07-13T03:53:12;3.63;;;2.25;;
26486;SDS011;14425;56.136;40.360;2023-07-13T03:55:40;2.55;;;2.05;;
26486;SDS011;14425;56.136;40.360;2023-07-13T04:00:54;4.20;;;1.73;;
26486;SDS011;14425;56.136;40.360;2023-07-13T04:03:20;3.55;;;2.70;;
26486;SDS011;14425;56.136;40.360;2023-07-13T04:05:46;2.55;;;1.58;;
26486;SDS011;14425;56.136;40.360;2023-07-13T04:08:15;3.53;;;2.00;;
26486;SDS011;14425;56.136;40.360;2023-07-13T04:10:44;3.72;;;1.92;;
26486;SDS011;14425;56.136;40.360;2023-07-13T04:13:09;2.63;;;1.98;;
26486;SDS011;14425;56.136;40.360;2023-07-13T04:15:35;2.85;;;1.52;;
26486;SDS011;14425;56.136;40.360;2023-07-13T04:18:01;2.92;;;2.10;;
26486;SDS011;14425;56.136;40.360;2023-07-13T04:20:31;3.72;;;1.98;;
26486;SDS011;14425;56.136;40.360;2023-07-13T04:23:00;3.65;;;1.60;;
26486;SDS011;14425;56.136;40.360;2023-07-13T04:25:26;5.85;;;2.55;;
26486;SDS011;14425;56.136;40.360;2023-07-13T04:27:52;1.38;;;0.90;;
26486;SDS011;14425;56.136;40.360;2023-07-13T04:30:19;2.63;;;2.00;;
26486;SDS011;14425;56.136;40.360;2023-07-13T04:32:45;1.80;;;1.25;;
26486;SDS011;14425;56.136;40.360;2023-07-13T04:35:10;2.72;;;1.70;;
26486;SDS011;14425;56.136;40.360;2023-07-13T04:37:39;2.78;;;2.25;;
26486;SDS011;14425;56.136;40.360;2023-07-13T04:40:08;2.70;;;1.50;;
26486;SDS011;14425;56.136;40.360;2023-07-13T04:42:37;3.25;;;2.10;;
26486;SDS011;14425;56.136;40.360;2023-07-13T04:45:07;4.72;;;1.92;;
26486;SDS011;14425;56.136;40.360;2023-07-13T04:47:36;4.75;;;1.77;;
26486;SDS011;14425;56.136;40.360;2023-07-13T04:50:01;2.83;;;1.63;;
26486;SDS011;14425;56.136;40.360;2023-07-13T04:52:30;2.17;;;1.55;;
26486;SDS011;14425;56.136;40.360;2023-07-13T04:54:57;2.78;;;1.85;;
26486;SDS011;14425;56.136;40.360;2023-07-13T04:57:25;3.47;;;1.98;;
26486;SDS011;14425;56.136;40.360;2023-07-13T04:59:51;3.13;;;1.58;;
26486;SDS011;14425;56.136;40.360;2023-07-13T05:02:20;2.28;;;1.45;;
26486;SDS011;14425;56.136;40.360;2023-07-13T05:04:49;4.38;;;1.60;;
26486;SDS011;14425;56.136;40.360;2023-07-13T05:07:15;4.10;;;1.58;;
26486;SDS011;14425;56.136;40.360;2023-07-13T05:09:43;3.35;;;1.60;;
26486;SDS011;14425;56.136;40.360;2023-07-13T05:12:09;2.38;;;1.55;;
26486;SDS011;14425;56.136;40.360;2023-07-13T05:14:35;2.20;;;1.60;;
26486;SDS011;14425;56.136;40.360;2023-07-13T05:17:00;4.03;;;1.70;;
26486;SDS011;14425;56.136;40.360;2023-07-13T05:19:26;2.58;;;1.30;;
26486;SDS011;14425;56.136;40.360;2023-07-13T05:21:52;5.15;;;2.05;;
26486;SDS011;14425;56.136;40.360;2023-07-13T05:24:20;2.50;;;1.42;;
26486;SDS011;14425;56.136;40.360;2023-07-13T05:26:45;2.78;;;1.30;;
26486;SDS011;14425;56.136;40.360;2023-07-13T05:29:11;5.28;;;2.95;;
26486;SDS011;14425;56.136;40.360;2023-07-13T05:31:37;1.92;;;1.45;;
26486;SDS011;14425;56.136;40.360;2023-07-13T05:34:02;3.88;;;1.73;;
26486;SDS011;14425;56.136;40.360;2023-07-13T05:36:31;2.42;;;1.63;;
26486;SDS011;14425;56.136;40.360;2023-07-13T05:38:56;3.92;;;1.40;;
26486;SDS011;14425;56.136;40.360;2023-07-13T05:41:22;4.57;;;0.95;;
26486;SDS011;14425;56.136;40.360;2023-07-13T05:43:51;3.15;;;1.50;;
26486;SDS011;14425;56.136;40.360;2023-07-13T05:46:17;4.25;;;1.80;;
26486;SDS011;14425;56.136;40.360;2023-07-13T05:48:45;1.30;;;1.20;;
26486;SDS011;14425;56.136;40.360;2023-07-13T05:51:14;3.90;;;1.65;;
26486;SDS011;14425;56.136;40.360;2023-07-13T05:53:39;4.57;;;1.42;;
26486;SDS011;14425;56.136;40.360;2023-07-13T05:56:05;3.40;;;1.85;;
26486;SDS011;14425;56.136;40.360;2023-07-13T05:58:30;1.85;;;1.55;;
26486;SDS011;14425;56.136;40.360;2023-07-13T06:03:51;4.90;;;1.63;;
26486;SDS011;14425;56.136;40.360;2023-07-13T06:06:22;1.52;;;1.20;;
26486;SDS011;14425;56.136;40.360;2023-07-13T06:08:48;6.25;;;2.38;;
26486;SDS011;14425;56.136;40.360;2023-07-13T06:11:20;3.83;;;1.83;;
26486;SDS011;14425;56.136;40.360;2023-07-13T06:13:51;2.00;;;1.70;;
26486;SDS011;14425;56.136;40.360;2023-07-13T06:16:17;2.97;;;1.48;;
26486;SDS011;14425;56.136;40.360;2023-07-13T06:18:46;3.20;;;1.67;;
26486;SDS011;14425;56.136;40.360;2023-07-13T06:21:13;3.40;;;1.63;;
26486;SDS011;14425;56.136;40.360;2023-07-13T06:23:43;3.10;;;1.73;;
26486;SDS011;14425;56.136;40.360;2023-07-13T06:26:09;3.15;;;1.90;;
26486;SDS011;14425;56.136;40.360;2023-07-13T06:28:36;2.15;;;1.88;;
26486;SDS011;14425;56.136;40.360;2023-07-13T06:31:06;2.88;;;1.75;;
26486;SDS011;14425;56.136;40.360;2023-07-13T06:33:36;3.57;;;2.80;;
26486;SDS011;14425;56.136;40.360;2023-07-13T06:36:05;6.90;;;2.28;;
26486;SDS011;14425;56.136;40.360;2023-07-13T06:38:35;3.15;;;1.50;;
26486;SDS011;14425;56.136;40.360;2023-07-13T06:41:04;3.63;;;2.70;;
26486;SDS011;14425;56.136;40.360;2023-07-13T06:43:31;3.85;;;2.33;;
26486;SDS011;14425;56.136;40.360;2023-07-13T06:46:00;5.97;;;2.38;;
26486;SDS011;14425;56.136;40.360;2023-07-13T06:48:26;4.07;;;2.20;;
26486;SDS011;14425;56.136;40.360;2023-07-13T06:50:55;3.38;;;2.40;;
26486;SDS011;14425;56.136;40.360;2023-07-13T06:53:21;5.13;;;2.30;;
26486;SDS011;14425;56.136;40.360;2023-07-13T06:55:47;3.10;;;1.95;;
26486;SDS011;14425;56.136;40.360;2023-07-13T06:58:14;5.28;;;2.22;;
26486;SDS011;14425;56.136;40.360;2023-07-13T07:00:41;1.83;;;1.23;;
26486;SDS011;14425;56.136;40.360;2023-07-13T07:03:07;2.78;;;2.17;;
26486;SDS011;14425;56.136;40.360;2023-07-13T07:05:32;4.50;;;1.90;;
26486;SDS011;14425;56.136;40.360;2023-07-13T07:07:58;4.68;;;2.50;;
26486;SDS011;14425;56.136;40.360;2023-07-13T07:10:28;2.55;;;2.13;;
26486;SDS011;14425;56.136;40.360;2023-07-13T07:12:58;4.65;;;1.90;;
26486;SDS011;14425;56.136;40.360;2023-07-13T07:15:34;6.97;;;2.50;;
26486;SDS011;14425;56.136;40.360;2023-07-13T07:18:00;2.85;;;2.05;;
26486;SDS011;14425;56.136;40.360;2023-07-13T07:20:25;5.07;;;2.63;;
26486;SDS011;14425;56.136;40.360;2023-07-13T07:23:01;3.65;;;2.35;;
26486;SDS011;14425;56.136;40.360;2023-07-13T07:25:26;4.72;;;2.63;;
26486;SDS011;14425;56.136;40.360;2023-07-13T07:27:52;4.95;;;2.90;;
26486;SDS011;14425;56.136;40.360;2023-07-13T07:30:20;3.70;;;2.60;;
26486;SDS011;14425;56.136;40.360;2023-07-13T07:32:49;8.05;;;2.67;;
26486;SDS011;14425;56.136;40.360;2023-07-13T07:35:14;8.07;;;2.38;;
26486;SDS011;14425;56.136;40.360;2023-07-13T07:37:41;3.20;;;2.40;;
26486;SDS011;14425;56.136;40.360;2023-07-13T07:40:07;4.95;;;2.85;;
26486;SDS011;14425;56.136;40.360;2023-07-13T07:42:37;5.20;;;2.35;;
26486;SDS011;14425;56.136;40.360;2023-07-13T07:45:05;6.28;;;2.92;;
26486;SDS011;14425;56.136;40.360;2023-07-13T07:47:35;3.63;;;2.53;;
26486;SDS011;14425;56.136;40.360;2023-07-13T07:50:00;3.47;;;2.28;;
26486;SDS011;14425;56.136;40.360;2023-07-13T07:52:26;5.15;;;2.33;;
26486;SDS011;14425;56.136;40.360;2023-07-13T07:54:51;5.50;;;2.70;;
26486;SDS011;14425;56.136;40.360;2023-07-13T07:57:17;3.40;;;1.90;;
26486;SDS011;14425;56.136;40.360;2023-07-13T07:59:45;3.92;;;2.38;;
26486;SDS011;14425;56.136;40.360;2023-07-13T08:02:13;7.68;;;3.83;;
26486;SDS011;14425;56.136;40.360;2023-07-13T08:04:39;6.13;;;2.47;;
26486;SDS011;14425;56.136;40.360;2023-07-13T08:07:05;5.18;;;2.47;;
26486;SDS011;14425;56.136;40.360;2023-07-13T08:09:31;4.35;;;2.22;;
26486;SDS011;14425;56.136;40.360;2023-07-13T08:11:57;3.85;;;2.65;;
26486;SDS011;14425;56.136;40.360;2023-07-13T08:14:23;4.57;;;2.35;;
26486;SDS011;14425;56.136;40.360;2023-07-13T08:16:50;3.78;;;2.15;;
26486;SDS011;14425;56.136;40.360;2023-07-13T08:19:16;5.20;;;2.22;;
26486;SDS011;14425;56.136;40.360;2023-07-13T08:21:42;3.33;;;1.88;;
26486;SDS011;14425;56.136;40.360;2023-07-13T08:24:08;2.65;;;2.10;;
26486;SDS011;14425;56.136;40.360;2023-07-13T08:26:34;2.78;;;1.80;;
26486;SDS011;14425;56.136;40.360;2023-07-13T08:29:00;4.13;;;2.28;;
26486;SDS011;14425;56.136;40.360;2023-07-13T08:31:25;4.93;;;2.05;;
26486;SDS011;14425;56.136;40.360;2023-07-13T08:33:51;4.35;;;2.10;;
26486;SDS011;14425;56.136;40.360;2023-07-13T08:36:16;4.35;;;2.20;;
26486;SDS011;14425;56.136;40.360;2023-07-13T08:38:42;2.72;;;2.53;;
26486;SDS011;14425;56.136;40.360;2023-07-13T08:41:17;4.13;;;1.90;;
26486;SDS011;14425;56.136;40.360;2023-07-13T08:43:45;3.47;;;2.35;;
26486;SDS011;14425;56.136;40.360;2023-07-13T08:46:25;4.15;;;2.03;;
26486;SDS011;14425;56.136;40.360;2023-07-13T08:48:58;7.53;;;4.47;;
26486;SDS011;14425;56.136;40.360;2023-07-13T08:54:24;7.55;;;2.97;;
26486;SDS011;14425;56.136;40.360;2023-07-13T08:56:59;6.32;;;2.50;;
26486;SDS011;14425;56.136;40.360;2023-07-13T08:59:41;3.75;;;2.92;;
26486;SDS011;14425;56.136;40.360;2023-07-13T09:05:00;4.13;;;2.60;;
26486;SDS011;14425;56.136;40.360;2023-07-13T09:15:35;2.65;;;1.95;;
26486;SDS011;14425;56.136;40.360;2023-07-13T09:18:14;2.80;;;1.75;;
26486;SDS011;14425;56.136;40.360;2023-07-13T09:21:45;4.53;;;2.53;;
26486;SDS011;14425;56.136;40.360;2023-07-13T09:23:45;4.65;;;2.45;;
26486;SDS011;14425;56.136;40.360;2023-07-13T09:26:21;5.63;;;3.10;;
26486;SDS011;14425;56.136;40.360;2023-07-13T09:29:09;4.00;;;3.38;;
26486;SDS011;14425;56.136;40.360;2023-07-13T09:31:47;7.28;;;2.60;;
26486;SDS011;14425;56.136;40.360;2023-07-13T09:34:19;4.90;;;2.53;;
26486;SDS011;14425;56.136;40.360;2023-07-13T09:36:50;4.20;;;2.65;;
26486;SDS011;14425;56.136;40.360;2023-07-13T09:42:01;5.25;;;3.03;;
26486;SDS011;14425;56.136;40.360;2023-07-13T09:44:54;6.75;;;2.97;;
26486;SDS011;14425;56.136;40.360;2023-07-13T09:47:28;5.20;;;3.58;;
26486;SDS011;14425;56.136;40.360;2023-07-13T09:50:14;6.43;;;3.83;;
26486;SDS011;14425;56.136;40.360;2023-07-13T09:52:47;7.57;;;3.53;;
26486;SDS011;14425;56.136;40.360;2023-07-13T09:55:41;5.60;;;3.40;;
26486;SDS011;14425;56.136;40.360;2023-07-13T10:00:59;4.32;;;3.25;;
26486;SDS011;14425;56.136;40.360;2023-07-13T10:03:29;4.13;;;2.97;;
26486;SDS011;14425;56.136;40.360;2023-07-13T10:06:09;5.32;;;2.70;;
26486;SDS011;14425;56.136;40.360;2023-07-13T10:08:38;3.95;;;2.90;;
26486;SDS011;14425;56.136;40.360;2023-07-13T10:11:11;4.50;;;2.90;;
26486;SDS011;14425;56.136;40.360;2023-07-13T10:13:44;5.40;;;2.83;;
26486;SDS011;14425;56.136;40.360;2023-07-13T10:16:18;6.63;;;2.92;;
26486;SDS011;14425;56.136;40.360;2023-07-13T10:18:50;5.97;;;2.70;;
26486;SDS011;14425;56.136;40.360;2023-07-13T10:21:21;4.90;;;2.78;;
26486;SDS011;14425;56.136;40.360;2023-07-13T10:23:50;4.50;;;3.08;;
26486;SDS011;14425;56.136;40.360;2023-07-13T10:26:25;4.55;;;3.67;;
26486;SDS011;14425;56.136;40.360;2023-07-13T10:28:59;4.13;;;2.85;;
26486;SDS011;14425;56.136;40.360;2023-07-13T10:31:29;7.45;;;3.20;;
26486;SDS011;14425;56.136;40.360;2023-07-13T10:33:56;3.75;;;2.95;;
26486;SDS011;14425;56.136;40.360;2023-07-13T10:38:56;6.53;;;3.05;;
26486;SDS011;14425;56.136;40.360;2023-07-13T10:41:28;4.60;;;2.28;;
26486;SDS011;14425;56.136;40.360;2023-07-13T10:44:02;4.85;;;1.95;;
26486;SDS011;14425;56.136;40.360;2023-07-13T10:46:42;3.58;;;2.50;;
26486;SDS011;14425;56.136;40.360;2023-07-13T10:49:12;2.45;;;1.90;;
26486;SDS011;14425;56.136;40.360;2023-07-13T10:51:38;5.53;;;2.35;;
26486;SDS011;14425;56.136;40.360;2023-07-13T10:54:27;3.97;;;2.22;;
26486;SDS011;14425;56.136;40.360;2023-07-13T11:02:31;3.85;;;2.20;;
26486;SDS011;14425;56.136;40.360;2023-07-13T11:05:01;4.32;;;1.38;;
26486;SDS011;14425;56.136;40.360;2023-07-13T11:10:59;2.97;;;2.03;;
26486;SDS011;14425;56.136;40.360;2023-07-13T11:16:11;2.90;;;1.60;;
26486;SDS011;14425;56.136;40.360;2023-07-13T11:21:34;3.05;;;1.65;;
26486;SDS011;14425;56.136;40.360;2023-07-13T11:24:21;1.60;;;1.42;;
26486;SDS011;14425;56.136;40.360;2023-07-13T11:31:43;3.05;;;1.50;;
26486;SDS011;14425;56.136;40.360;2023-07-13T11:34:38;1.65;;;1.40;;
26486;SDS011;14425;56.136;40.360;2023-07-13T11:37:07;2.65;;;1.30;;
26486;SDS011;14425;56.136;40.360;2023-07-13T11:39:41;2.40;;;1.52;;
26486;SDS011;14425;56.136;40.360;2023-07-13T11:42:10;1.38;;;1.27;;
26486;SDS011;14425;56.136;40.360;2023-07-13T11:44:43;2.70;;;1.35;;
26486;SDS011;14425;56.136;40.360;2023-07-13T11:47:21;3.35;;;1.45;;
26486;SDS011;14425;56.136;40.360;2023-07-13T11:49:54;1.85;;;1.08;;
26486;SDS011;14425;56.136;40.360;2023-07-13T11:52:33;1.75;;;0.73;;
26486;SDS011;14425;56.136;40.360;2023-07-13T11:55:03;2.00;;;1.40;;
26486;SDS011;14425;56.136;40.360;2023-07-13T11:57:40;2.03;;;1.10;;
26486;SDS011;14425;56.136;40.360;2023-07-13T12:00:31;5.15;;;1.50;;
26486;SDS011;14425;56.136;40.360;2023-07-13T12:03:02;2.50;;;1.40;;
26486;SDS011;14425;56.136;40.360;2023-07-13T12:05:30;2.70;;;1.20;;
26486;SDS011;14425;56.136;40.360;2023-07-13T12:07:57;1.38;;;1.08;;
26486;SDS011;14425;56.136;40.360;2023-07-13T12:10:26;2.22;;;1.10;;
26486;SDS011;14425;56.136;40.360;2023-07-13T12:13:01;2.45;;;1.13;;
26486;SDS011;14425;56.136;40.360;2023-07-13T12:15:39;1.52;;;1.20;;
26486;SDS011;14425;56.136;40.360;2023-07-13T12:18:24;2.05;;;1.20;;
26486;SDS011;14425;56.136;40.360;2023-07-13T12:25:56;2.70;;;1.40;;
26486;SDS011;14425;56.136;40.360;2023-07-13T12:28:34;2.28;;;1.17;;
26486;SDS011;14425;56.136;40.360;2023-07-13T12:31:24;7.53;;;1.90;;
26486;SDS011;14425;56.136;40.360;2023-07-13T12:34:00;2.55;;;1.55;;
26486;SDS011;14425;56.136;40.360;2023-07-13T12:36:56;2.03;;;1.23;;
26486;SDS011;14425;56.136;40.360;2023-07-13T12:39:34;1.92;;;1.27;;
26486;SDS011;14425;56.136;40.360;2023-07-13T12:42:19;2.38;;;1.13;;
26486;SDS011;14425;56.136;40.360;2023-07-13T12:45:00;3.42;;;1.05;;
26486;SDS011;14425;56.136;40.360;2023-07-13T12:47:42;2.80;;;1.02;;
26486;SDS011;14425;56.136;40.360;2023-07-13T12:50:20;2.13;;;1.10;;
26486;SDS011;14425;56.136;40.360;2023-07-13T12:52:56;2.33;;;1.10;;
26486;SDS011;14425;56.136;40.360;2023-07-13T12:55:45;3.80;;;1.20;;
26486;SDS011;14425;56.136;40.360;2023-07-13T12:58:26;2.28;;;1.00;;
26486;SDS011;14425;56.136;40.360;2023-07-13T13:00:54;2.83;;;1.38;;
26486;SDS011;14425;56.136;40.360;2023-07-13T13:03:29;1.52;;;1.38;;
26486;SDS011;14425;56.136;40.360;2023-07-13T13:05:58;2.00;;;1.70;;
26486;SDS011;14425;56.136;40.360;2023-07-13T13:08:28;1.85;;;1.38;;
26486;SDS011;14425;56.136;40.360;2023-07-13T13:10:54;3.20;;;1.23;;
26486;SDS011;14425;56.136;40.360;2023-07-13T13:13:20;2.10;;;1.20;;
26486;SDS011;14425;56.136;40.360;2023-07-13T13:15:45;2.05;;;1.20;;
26486;SDS011;14425;56.136;40.360;2023-07-13T13:18:22;1.75;;;0.95;;
26486;SDS011;14425;56.136;40.360;2023-07-13T13:20:51;1.85;;;1.50;;
26486;SDS011;14425;56.136;40.360;2023-07-13T13:23:18;2.95;;;1.55;;
26486;SDS011;14425;56.136;40.360;2023-07-13T13:25:46;4.20;;;1.05;;
26486;SDS011;14425;56.136;40.360;2023-07-13T13:28:15;3.22;;;1.67;;
26486;SDS011;14425;56.136;40.360;2023-07-13T13:30:44;2.03;;;1.77;;
26486;SDS011;14425;56.136;40.360;2023-07-13T13:33:15;5.10;;;2.07;;
26486;SDS011;14425;56.136;40.360;2023-07-13T13:35:42;2.20;;;1.88;;
26486;SDS011;14425;56.136;40.360;2023-07-13T13:38:12;2.70;;;1.60;;
26486;SDS011;14425;56.136;40.360;2023-07-13T13:40:58;2.63;;;1.73;;
26486;SDS011;14425;56.136;40.360;2023-07-13T13:43:25;2.35;;;1.60;;
26486;SDS011;14425;56.136;40.360;2023-07-13T13:45:52;2.78;;;1.90;;
26486;SDS011;14425;56.136;40.360;2023-07-13T13:48:21;3.58;;;1.60;;
26486;SDS011;14425;56.136;40.360;2023-07-13T13:50:58;1.70;;;1.58;;
26486;SDS011;14425;56.136;40.360;2023-07-13T13:53:25;2.42;;;1.40;;
26486;SDS011;14425;56.136;40.360;2023-07-13T13:55:58;3.40;;;1.90;;
26486;SDS011;14425;56.136;40.360;2023-07-13T13:58:24;1.98;;;1.30;;
26486;SDS011;14425;56.136;40.360;2023-07-13T14:00:50;2.85;;;1.25;;
26486;SDS011;14425;56.136;40.360;2023-07-13T14:03:18;2.72;;;1.80;;
26486;SDS011;14425;56.136;40.360;2023-07-13T14:05:45;3.88;;;2.75;;
26486;SDS011;14425;56.136;40.360;2023-07-13T14:08:15;3.08;;;1.92;;
26486;SDS011;14425;56.136;40.360;2023-07-13T14:10:45;3.00;;;2.10;;
26486;SDS011;14425;56.136;40.360;2023-07-13T14:13:18;2.50;;;1.10;;
26486;SDS011;14425;56.136;40.360;2023-07-13T14:15:51;1.85;;;0.93;;
26486;SDS011;14425;56.136;40.360;2023-07-13T14:18:18;1.63;;;0.90;;
26486;SDS011;14425;56.136;40.360;2023-07-13T14:20:44;1.33;;;1.23;;
26486;SDS011;14425;56.136;40.360;2023-07-13T14:23:12;2.30;;;1.13;;
26486;SDS011;14425;56.136;40.360;2023-07-13T14:25:41;1.48;;;0.80;;
26486;SDS011;14425;56.136;40.360;2023-07-13T14:28:15;3.33;;;0.85;;
26486;SDS011;14425;56.136;40.360;2023-07-13T14:30:52;1.63;;;1.10;;
26486;SDS011;14425;56.136;40.360;2023-07-13T14:33:20;2.95;;;1.40;;
26486;SDS011;14425;56.136;40.360;2023-07-13T14:35:46;1.30;;;1.05;;
26486;SDS011;14425;56.136;40.360;2023-07-13T14:38:13;2.53;;;1.13;;
26486;SDS011;14425;56.136;40.360;2023-07-13T14:40:42;2.08;;;1.38;;
26486;SDS011;14425;56.136;40.360;2023-07-13T14:43:11;2.42;;;0.77;;
26486;SDS011;14425;56.136;40.360;2023-07-13T14:45:43;2.90;;;0.93;;
26486;SDS011;14425;56.136;40.360;2023-07-13T14:48:21;2.00;;;1.00;;
26486;SDS011;14425;56.136;40.360;2023-07-13T14:51:00;2.35;;;0.70;;
26486;SDS011;14425;56.136;40.360;2023-07-13T14:53:26;1.10;;;0.70;;
26486;SDS011;14425;56.136;40.360;2023-07-13T14:55:53;2.72;;;0.90;;
26486;SDS011;14425;56.136;40.360;2023-07-13T14:58:25;1.70;;;0.88;;
26486;SDS011;14425;56.136;40.360;2023-07-13T15:00:50;0.93;;;0.60;;
26486;SDS011;14425;56.136;40.360;2023-07-13T15:03:27;1.55;;;0.90;;
26486;SDS011;14425;56.136;40.360;2023-07-13T15:05:55;1.95;;;1.05;;
26486;SDS011;14425;56.136;40.360;2023-07-13T15:08:21;1.40;;;1.02;;
26486;SDS011;14425;56.136;40.360;2023-07-13T15:10:47;3.35;;;2.00;;
26486;SDS011;14425;56.136;40.360;2023-07-13T15:13:19;3.25;;;1.90;;
26486;SDS011;14425;56.136;40.360;2023-07-13T15:15:47;3.35;;;1.83;;
26486;SDS011;14425;56.136;40.360;2023-07-13T15:18:15;3.45;;;1.95;;
26486;SDS011;14425;56.136;40.360;2023-07-13T15:20:44;2.65;;;1.80;;
26486;SDS011;14425;56.136;40.360;2023-07-13T15:23:11;2.58;;;1.83;;
26486;SDS011;14425;56.136;40.360;2023-07-13T15:25:38;2.58;;;2.22;;
26486;SDS011;14425;56.136;40.360;2023-07-13T15:28:11;1.80;;;1.65;;
26486;SDS011;14425;56.136;40.360;2023-07-13T15:30:42;2.45;;;1.58;;
26486;SDS011;14425;56.136;40.360;2023-07-13T15:33:14;3.05;;;1.60;;
26486;SDS011;14425;56.136;40.360;2023-07-13T15:36:04;2.40;;;1.83;;
26486;SDS011;14425;56.136;40.360;2023-07-13T15:38:30;2.60;;;2.10;;
26486;SDS011;14425;56.136;40.360;2023-07-13T15:41:04;3.75;;;1.55;;
26486;SDS011;14425;56.136;40.360;2023-07-13T15:43:49;3.05;;;1.55;;
26486;SDS011;14425;56.136;40.360;2023-07-13T15:46:19;4.63;;;1.90;;
26486;SDS011;14425;56.136;40.360;2023-07-13T15:48:47;1.70;;;1.40;;